MET'MAP v2.0
soon released !

Expected late october,
this new version will be
more efficient, smarter,
and hosted on a brand new
server x3 powerfull...
...and still free !


Not compatible ?
Try the mobile version !

LOG IN : | Subscribe | Disclaimer | Who is Orbifly ? |
ICAO code :

TAF - LYBT Batajnica Air Base - 04 Apr 2020 21:03 UTC - Data Source NOAA   


- Airport Elevation : 265 ft
- IATA code : BJY
- No reported NOTAMs.


LYBT - Batajnica Air Base

Latest METAR recorded : 2015/08/11 08:00 LYBT 110800Z 05006KT 360V080 CAVOK 29/15 Q1013 NOSIG
TAF TAF LYBT
Valid from the 04 at 18:00 until the 05 at 18:00 UTC


041700Z 0418/0518 03007KT CAVOK TX16/0513Z TN01/0505Z
TEMPO 0503/0506 3000 BR
TEMPO 0509/0515 09012KT

Source NOAA


MET'MAP, your aeronautical weather chart ! - Copyright ORBIFLY December 2007

Programming & Development : Alexandra Zaïnal
Co-Developer : Marc-Olivier Méhu
Technical & hardware support : Manuel Goepfert
Concept & Financing : Baudouin d'Aumeries